createdAt,value
2022-08-26T00:02:07.150Z,12.60
2022-08-26T00:04:34.445Z,11.70
2022-08-26T00:07:05.273Z,12.40
2022-08-26T00:09:33.042Z,12.23
2022-08-26T00:12:08.735Z,11.33
2022-08-26T00:14:41.548Z,11.83
2022-08-26T00:17:14.671Z,11.57
2022-08-26T00:19:41.884Z,11.23
2022-08-26T00:22:20.305Z,11.70
2022-08-26T00:24:48.738Z,13.37
2022-08-26T00:27:15.785Z,11.83
2022-08-26T00:29:42.751Z,12.23
2022-08-26T00:32:09.808Z,12.40
2022-08-26T00:34:38.495Z,12.10
2022-08-26T00:37:15.684Z,12.33
2022-08-26T00:39:43.295Z,12.57
2022-08-26T00:42:13.034Z,12.87
2022-08-26T00:44:43.080Z,22.20
2022-08-26T00:47:31.310Z,13.17
2022-08-26T00:49:59.775Z,13.17
2022-08-26T00:52:30.576Z,12.53
2022-08-26T00:55:04.846Z,12.80
2022-08-26T00:57:32.547Z,12.40
2022-08-26T01:00:01.223Z,13.20
2022-08-26T01:02:28.885Z,12.60
2022-08-26T01:05:00.699Z,12.80
2022-08-26T01:07:31.316Z,12.23
2022-08-26T01:10:01.382Z,12.33
2022-08-26T01:12:31.888Z,12.40
2022-08-26T01:14:59.359Z,11.30
2022-08-26T01:17:33.712Z,11.70
2022-08-26T01:20:17.472Z,12.97
2022-08-26T01:23:03.215Z,11.53
2022-08-26T01:25:40.506Z,12.63
2022-08-26T01:28:37.283Z,12.53
2022-08-26T01:31:07.851Z,11.47
2022-08-26T01:34:04.732Z,11.83
2022-08-26T01:36:31.907Z,12.07
2022-08-26T01:39:07.272Z,11.73
2022-08-26T01:41:35.311Z,11.90
2022-08-26T01:44:04.870Z,12.63
2022-08-26T01:46:35.340Z,13.67
2022-08-26T01:49:06.431Z,12.90
2022-08-26T01:51:37.450Z,13.33
2022-08-26T01:54:06.805Z,12.50
2022-08-26T01:56:42.539Z,12.97
2022-08-26T01:59:13.035Z,12.20
2022-08-26T02:01:40.566Z,12.13
2022-08-26T02:04:13.862Z,13.07
2022-08-26T02:06:43.346Z,12.47
2022-08-26T02:09:11.544Z,15.23
2022-08-26T02:11:38.826Z,15.23
2022-08-26T02:14:12.891Z,14.67
2022-08-26T02:16:43.088Z,13.43
2022-08-26T02:19:21.273Z,12.23
2022-08-26T02:21:52.237Z,12.63
2022-08-26T02:24:49.071Z,12.30
2022-08-26T02:27:19.729Z,12.27
2022-08-26T02:29:51.215Z,12.37
2022-08-26T02:32:18.474Z,12.83
2022-08-26T02:34:46.546Z,11.30
2022-08-26T02:37:13.590Z,11.93
2022-08-26T02:39:46.875Z,12.43
2022-08-26T02:42:17.966Z,12.33
2022-08-26T02:44:44.972Z,12.70
2022-08-26T02:49:55.087Z,10.87
2022-08-26T02:52:22.889Z,12.57
2022-08-26T02:54:50.198Z,12.47
2022-08-26T02:57:22.213Z,12.57
2022-08-26T02:59:56.678Z,12.53
2022-08-26T03:02:23.853Z,12.87
2022-08-26T03:04:57.490Z,12.33
2022-08-26T03:07:25.290Z,12.03
2022-08-26T03:09:55.696Z,12.03
2022-08-26T03:12:22.507Z,12.00
2022-08-26T03:14:49.270Z,12.20
2022-08-26T03:17:19.336Z,11.73
2022-08-26T03:19:46.187Z,11.07
2022-08-26T03:22:16.190Z,12.00
2022-08-26T03:24:46.242Z,11.83
2022-08-26T03:30:15.325Z,12.03
2022-08-26T03:32:42.062Z,11.17
2022-08-26T03:35:09.217Z,10.93
2022-08-26T03:37:35.959Z,12.80
2022-08-26T03:40:06.049Z,12.00
2022-08-26T03:42:38.014Z,12.67
2022-08-26T03:45:07.278Z,12.60
2022-08-26T03:47:34.422Z,12.73
2022-08-26T03:50:01.547Z,12.83
2022-08-26T03:52:30.388Z,12.37
2022-08-26T03:55:00.468Z,12.20
2022-08-26T03:57:27.648Z,12.30
2022-08-26T03:59:54.718Z,12.20
2022-08-26T04:02:24.421Z,11.33
2022-08-26T04:04:52.421Z,11.77
2022-08-26T04:07:19.684Z,12.37
2022-08-26T04:09:49.759Z,11.97
2022-08-26T04:12:16.596Z,11.67
2022-08-26T04:14:43.306Z,11.97
2022-08-26T04:17:12.020Z,12.27
2022-08-26T04:19:39.063Z,11.77
2022-08-26T04:22:05.928Z,12.17
2022-08-26T04:24:33.045Z,10.40
2022-08-26T04:27:00.112Z,9.90
2022-08-26T04:29:30.275Z,10.23
2022-08-26T04:31:57.127Z,9.53
2022-08-26T04:34:29.013Z,9.90
2022-08-26T04:36:58.053Z,11.80
2022-08-26T04:39:25.340Z,12.23
2022-08-26T04:41:55.430Z,10.50
2022-08-26T04:44:25.510Z,10.17
2022-08-26T04:46:53.917Z,11.07
2022-08-26T04:49:22.402Z,10.30
2022-08-26T04:51:56.906Z,10.87
2022-08-26T04:54:25.202Z,9.40
2022-08-26T04:56:52.321Z,9.73
2022-08-26T04:59:19.198Z,9.83
2022-08-26T05:01:56.483Z,10.53
2022-08-26T05:04:23.439Z,9.37
2022-08-26T05:06:51.135Z,9.27
2022-08-26T05:09:22.094Z,9.63
2022-08-26T05:11:52.502Z,9.90
2022-08-26T05:14:25.968Z,9.43
2022-08-26T05:16:54.204Z,10.37
2022-08-26T05:19:21.070Z,10.37
2022-08-26T05:21:48.919Z,10.13
2022-08-26T05:24:16.219Z,11.43
2022-08-26T05:26:46.834Z,11.27
2022-08-26T05:29:19.479Z,10.57
2022-08-26T05:31:46.652Z,9.60
2022-08-26T05:34:14.351Z,14.07
2022-08-26T05:36:41.301Z,12.17
2022-08-26T05:39:11.301Z,11.07
2022-08-26T05:41:41.251Z,9.93
2022-08-26T05:44:12.745Z,9.70
2022-08-26T05:46:41.998Z,11.23
2022-08-26T05:49:15.889Z,10.43
2022-08-26T05:51:45.303Z,10.20
2022-08-26T05:54:21.287Z,11.60
2022-08-26T05:56:49.658Z,12.10
2022-08-26T05:59:16.776Z,14.77
2022-08-26T06:01:48.280Z,11.87
2022-08-26T06:04:15.197Z,11.93
2022-08-26T06:06:42.704Z,14.03
2022-08-26T06:09:11.299Z,11.50
2022-08-26T06:11:42.161Z,11.10
2022-08-26T06:14:14.063Z,12.37
2022-08-26T06:16:43.791Z,12.50
2022-08-26T06:19:15.945Z,11.53
2022-08-26T06:21:46.534Z,11.70
2022-08-26T06:24:32.969Z,11.63
2022-08-26T06:27:03.533Z,12.80
2022-08-26T06:29:40.079Z,12.33
2022-08-26T06:32:07.253Z,13.13
2022-08-26T06:34:39.033Z,13.17
2022-08-26T06:37:06.690Z,12.03
2022-08-26T06:39:34.179Z,10.30
2022-08-26T06:42:02.567Z,12.03
2022-08-26T06:44:30.145Z,10.87
2022-08-26T06:46:57.163Z,11.37
2022-08-26T06:49:26.839Z,11.07
2022-08-26T06:51:55.153Z,10.83
2022-08-26T06:54:24.824Z,10.17
2022-08-26T06:56:51.938Z,9.63
2022-08-26T06:59:22.438Z,10.80
2022-08-26T07:01:53.299Z,9.97
2022-08-26T07:04:22.368Z,10.77
2022-08-26T07:06:52.762Z,11.30
2022-08-26T07:09:23.839Z,10.37
2022-08-26T07:11:56.512Z,11.23
2022-08-26T07:14:25.226Z,9.87
2022-08-26T07:16:53.607Z,9.37
2022-08-26T07:19:28.541Z,9.60
2022-08-26T07:22:04.425Z,8.83
2022-08-26T07:24:42.467Z,8.93
2022-08-26T07:27:12.955Z,9.10
2022-08-26T07:29:46.217Z,8.00
2022-08-26T07:32:18.270Z,8.73
2022-08-26T07:34:45.665Z,8.80
2022-08-26T07:37:12.991Z,8.57
2022-08-26T07:39:43.173Z,8.23
2022-08-26T07:42:14.038Z,8.83
2022-08-26T07:44:41.349Z,8.20
2022-08-26T07:47:24.828Z,9.00
2022-08-26T07:49:59.092Z,9.40
2022-08-26T07:52:30.684Z,8.27
2022-08-26T07:55:07.796Z,8.30
2022-08-26T07:57:34.722Z,8.07
2022-08-26T08:00:07.552Z,8.50
2022-08-26T08:02:36.833Z,8.27
2022-08-26T08:05:04.316Z,8.40
2022-08-26T08:07:38.778Z,7.93
2022-08-26T08:10:21.198Z,8.27
2022-08-26T08:12:49.366Z,7.90
2022-08-26T08:15:18.616Z,7.67
2022-08-26T08:17:46.659Z,8.53
2022-08-26T08:20:17.678Z,8.90
2022-08-26T08:22:44.513Z,8.70
2022-08-26T08:25:12.926Z,8.20
2022-08-26T08:27:41.795Z,8.90
2022-08-26T08:30:09.606Z,7.63
2022-08-26T08:32:44.359Z,7.70
2022-08-26T08:35:14.948Z,7.33
2022-08-26T08:37:43.680Z,7.63
2022-08-26T08:40:19.259Z,7.60
2022-08-26T08:42:59.281Z,7.30
2022-08-26T08:45:39.955Z,8.03
2022-08-26T08:48:22.400Z,7.80
2022-08-26T08:51:03.153Z,7.27
2022-08-26T08:53:39.676Z,7.37
2022-08-26T08:56:29.082Z,6.53
2022-08-26T08:59:16.883Z,6.80
2022-08-26T09:02:14.788Z,7.03
2022-08-26T09:04:55.786Z,6.37
2022-08-26T09:07:49.201Z,6.23
2022-08-26T09:10:28.431Z,6.33
2022-08-26T09:12:55.800Z,6.73
2022-08-26T09:15:42.665Z,7.00
2022-08-26T09:18:37.196Z,6.87
2022-08-26T09:21:11.852Z,7.30
2022-08-26T09:23:46.996Z,6.73
2022-08-26T09:26:29.324Z,7.43
2022-08-26T09:29:03.996Z,6.73
2022-08-26T09:31:39.505Z,6.70
2022-08-26T09:34:30.378Z,6.70
2022-08-26T09:37:00.891Z,6.97
2022-08-26T09:39:37.673Z,6.90
2022-08-26T09:42:09.716Z,6.35
2022-08-26T09:44:52.176Z,6.00
2022-08-26T09:47:33.079Z,6.33
2022-08-26T09:50:19.933Z,6.10
2022-08-26T09:52:49.821Z,5.45
2022-08-26T09:55:24.066Z,5.75
2022-08-26T09:57:54.333Z,6.03
2022-08-26T10:00:30.335Z,6.07
2022-08-26T10:02:59.323Z,5.35
2022-08-26T10:05:46.406Z,5.88
2022-08-26T10:08:24.926Z,5.65
2022-08-26T10:10:53.363Z,5.65
2022-08-26T10:13:25.921Z,5.22
2022-08-26T10:16:00.039Z,5.57
2022-08-26T10:18:37.895Z,5.00
2022-08-26T10:21:10.387Z,5.13
2022-08-26T10:23:47.118Z,5.25
2022-08-26T10:26:40.178Z,5.05
2022-08-26T10:29:25.453Z,5.60
2022-08-26T10:32:02.487Z,6.13
2022-08-26T10:34:32.355Z,5.88
2022-08-26T10:37:15.671Z,6.30
2022-08-26T10:40:11.587Z,6.78
2022-08-26T10:42:54.078Z,6.63
2022-08-26T10:45:27.648Z,6.95
2022-08-26T10:47:58.304Z,6.20
2022-08-26T10:50:37.281Z,6.53
2022-08-26T10:53:29.393Z,6.50
2022-08-26T10:56:43.296Z,7.28
2022-08-26T10:59:28.896Z,6.90
2022-08-26T11:02:46.915Z,7.07
2022-08-26T11:05:23.770Z,6.60
2022-08-26T11:08:19.580Z,6.90
2022-08-26T11:11:03.607Z,7.78
2022-08-26T11:13:58.528Z,6.72
2022-08-26T11:16:45.034Z,6.80
2022-08-26T11:20:01.947Z,7.13
2022-08-26T11:26:01.405Z,7.30
2022-08-26T11:28:40.167Z,7.55
2022-08-26T11:31:26.359Z,15.27
2022-08-26T11:34:00.617Z,7.43
2022-08-26T11:36:45.474Z,6.80
2022-08-26T11:39:29.558Z,6.65
2022-08-26T11:42:21.248Z,6.17
2022-08-26T11:44:49.365Z,6.23
2022-08-26T11:47:26.765Z,6.67
2022-08-26T11:50:25.281Z,6.97
2022-08-26T11:53:01.788Z,6.05
2022-08-26T11:55:33.261Z,6.63
2022-08-26T11:58:04.828Z,6.17
2022-08-26T12:00:48.950Z,5.90
2022-08-26T12:03:23.583Z,5.17
2022-08-26T12:05:52.686Z,5.00
2022-08-26T12:08:28.455Z,5.50
2022-08-26T12:11:04.630Z,5.30
2022-08-26T12:13:36.811Z,5.10
2022-08-26T12:16:05.765Z,5.00
2022-08-26T12:18:47.119Z,5.20
2022-08-26T12:21:19.980Z,5.00
2022-08-26T12:23:51.354Z,5.53
2022-08-26T12:26:29.403Z,6.00
2022-08-26T12:29:28.580Z,5.90
2022-08-26T12:32:18.546Z,6.20
2022-08-26T12:34:49.050Z,6.40
2022-08-26T12:37:16.223Z,5.97
2022-08-26T12:39:46.223Z,6.13
2022-08-26T12:42:12.942Z,5.60
2022-08-26T12:45:09.418Z,5.97
2022-08-26T12:47:44.115Z,6.00
2022-08-26T12:50:30.969Z,6.38
2022-08-26T12:53:16.131Z,5.93
2022-08-26T12:55:48.259Z,5.47
2022-08-26T12:58:35.338Z,5.90
2022-08-26T13:01:06.004Z,6.13
2022-08-26T13:03:38.946Z,6.07
2022-08-26T13:06:20.631Z,5.28
2022-08-26T13:08:51.137Z,6.22
2022-08-26T13:11:26.269Z,5.22
2022-08-26T13:14:06.995Z,5.97
2022-08-26T13:16:37.468Z,7.22
2022-08-26T13:19:11.888Z,6.00
2022-08-26T13:21:44.691Z,5.78
2022-08-26T13:24:14.208Z,5.55
2022-08-26T13:26:43.125Z,6.18
2022-08-26T13:29:10.670Z,6.03
2022-08-26T13:31:40.149Z,6.32
2022-08-26T13:34:09.316Z,6.05
2022-08-26T13:36:48.078Z,5.70
2022-08-26T13:39:15.372Z,6.20
2022-08-26T13:41:43.274Z,6.03
2022-08-26T13:44:13.594Z,6.72
2022-08-26T13:46:41.015Z,7.13
2022-08-26T13:49:08.215Z,6.95
2022-08-26T13:51:40.593Z,6.32
2022-08-26T13:54:07.951Z,6.53
2022-08-26T13:56:35.868Z,6.65
2022-08-26T13:59:03.154Z,6.43
2022-08-26T14:01:33.972Z,6.77
2022-08-26T14:04:09.703Z,7.00
2022-08-26T14:06:39.613Z,6.77
2022-08-26T14:09:06.414Z,6.63
2022-08-26T14:11:37.290Z,6.40
2022-08-26T14:14:20.102Z,6.47
2022-08-26T14:16:59.046Z,6.40
2022-08-26T14:19:28.780Z,6.18
2022-08-26T14:21:56.632Z,6.47
2022-08-26T14:24:24.016Z,6.43
2022-08-26T14:26:50.960Z,6.60
2022-08-26T14:29:17.772Z,6.50
2022-08-26T14:31:45.033Z,6.47
2022-08-26T14:34:18.432Z,6.55
2022-08-26T14:36:45.436Z,6.23
2022-08-26T14:39:18.375Z,6.30
2022-08-26T14:41:55.027Z,6.22
2022-08-26T14:44:30.553Z,5.90
2022-08-26T14:46:59.647Z,6.10
2022-08-26T14:49:27.423Z,6.07
2022-08-26T14:51:54.719Z,5.30
2022-08-26T14:54:24.157Z,5.50
2022-08-26T14:57:03.823Z,6.13
2022-08-26T14:59:43.340Z,5.25
2022-08-26T15:02:32.847Z,5.43
2022-08-26T15:05:01.198Z,6.00
2022-08-26T15:07:28.272Z,4.95
2022-08-26T15:09:58.431Z,5.47
2022-08-26T15:12:25.266Z,5.60
2022-08-26T15:14:58.577Z,5.13
2022-08-26T15:17:26.230Z,5.38
2022-08-26T15:19:53.068Z,4.80
2022-08-26T15:22:20.131Z,4.95
2022-08-26T15:24:53.677Z,5.85
2022-08-26T15:27:20.792Z,5.20
2022-08-26T15:29:47.795Z,4.82
2022-08-26T15:32:14.595Z,4.75
2022-08-26T15:34:46.610Z,4.15
2022-08-26T15:37:13.585Z,4.32
2022-08-26T15:39:42.889Z,4.72
2022-08-26T15:42:11.042Z,4.88
2022-08-26T15:47:25.698Z,4.78
2022-08-26T15:49:52.821Z,4.20
2022-08-26T15:52:26.081Z,3.85
2022-08-26T15:54:56.226Z,4.30
2022-08-26T15:57:26.085Z,4.32
2022-08-26T15:59:56.357Z,4.90
2022-08-26T16:02:23.145Z,3.72
2022-08-26T16:04:53.066Z,4.40
2022-08-26T16:07:21.656Z,4.13
2022-08-26T16:09:52.049Z,4.60
2022-08-26T16:12:21.334Z,5.00
2022-08-26T16:14:52.708Z,4.63
2022-08-26T16:17:22.661Z,5.20
2022-08-26T16:19:49.785Z,4.43
2022-08-26T16:22:19.660Z,5.00
2022-08-26T16:24:46.936Z,4.63
2022-08-26T16:27:16.848Z,5.23
2022-08-26T16:29:43.927Z,6.03
2022-08-26T16:32:10.986Z,5.63
2022-08-26T16:34:38.081Z,5.40
2022-08-26T16:37:14.033Z,5.20
2022-08-26T16:39:45.168Z,5.43
2022-08-26T16:42:12.196Z,5.47
2022-08-26T16:44:44.811Z,5.93
2022-08-26T16:47:18.772Z,6.03
2022-08-26T16:49:51.255Z,6.10
2022-08-26T16:52:18.627Z,6.40
2022-08-26T16:54:45.592Z,6.27
2022-08-26T16:57:14.205Z,6.93
2022-08-26T16:59:41.826Z,6.43
2022-08-26T17:02:10.607Z,7.00
2022-08-26T17:04:38.392Z,6.07
2022-08-26T17:07:10.977Z,6.37
2022-08-26T17:09:38.109Z,6.27
2022-08-26T17:12:08.405Z,6.80
2022-08-26T17:14:38.233Z,5.00
2022-08-26T17:17:06.169Z,4.50
2022-08-26T17:19:39.052Z,4.57
2022-08-26T17:22:11.805Z,4.17
2022-08-26T17:24:39.346Z,4.10
2022-08-26T17:27:06.495Z,4.13
2022-08-26T17:29:36.668Z,5.63
2022-08-26T17:32:04.072Z,4.63
2022-08-26T17:34:34.482Z,5.73
2022-08-26T17:37:04.674Z,5.10
2022-08-26T17:39:34.479Z,5.33
2022-08-26T17:42:01.253Z,4.90
2022-08-26T17:44:28.294Z,5.03
2022-08-26T17:46:55.408Z,4.53
2022-08-26T17:49:24.757Z,4.43
2022-08-26T17:51:51.518Z,5.27
2022-08-26T17:54:21.001Z,5.23
2022-08-26T17:56:47.842Z,5.53
2022-08-26T17:59:15.734Z,5.87
2022-08-26T18:01:45.928Z,6.30
2022-08-26T18:04:14.883Z,6.83
2022-08-26T18:06:43.492Z,6.40
2022-08-26T18:09:10.550Z,6.13
2022-08-26T18:11:40.669Z,6.40
2022-08-26T18:14:07.969Z,6.70
2022-08-26T18:16:38.369Z,7.00
2022-08-26T18:19:06.349Z,7.00
2022-08-26T18:21:33.456Z,6.83
2022-08-26T18:24:04.400Z,6.27
2022-08-26T18:26:34.967Z,6.47
2022-08-26T18:29:05.440Z,6.90
2022-08-26T18:31:33.527Z,7.10
2022-08-26T18:34:10.951Z,7.60
2022-08-26T18:36:44.224Z,6.70
2022-08-26T18:39:12.836Z,7.07
2022-08-26T18:41:44.902Z,6.50
2022-08-26T18:44:14.125Z,6.97
2022-08-26T18:46:41.624Z,7.00
2022-08-26T18:49:09.969Z,6.90
2022-08-26T18:51:38.178Z,7.03
2022-08-26T18:54:07.311Z,7.30
2022-08-26T18:56:36.144Z,7.13
2022-08-26T18:59:04.948Z,7.60
2022-08-26T19:01:32.682Z,7.70
2022-08-26T19:04:01.844Z,8.00
2022-08-26T19:06:31.907Z,8.40
2022-08-26T19:08:59.992Z,8.50
2022-08-26T19:11:32.408Z,7.80
2022-08-26T19:14:07.592Z,7.10
2022-08-26T19:16:37.648Z,8.00
2022-08-26T19:19:07.937Z,9.43
2022-08-26T19:21:41.641Z,8.77
2022-08-26T19:24:15.841Z,8.90
2022-08-26T19:26:45.405Z,8.17
2022-08-26T19:29:13.808Z,8.23
2022-08-26T19:31:42.425Z,7.90
2022-08-26T19:34:11.199Z,7.83
2022-08-26T19:36:44.765Z,7.60
2022-08-26T19:39:15.991Z,7.50
2022-08-26T19:41:43.170Z,15.07
2022-08-26T19:44:35.333Z,9.93
2022-08-26T19:47:03.767Z,9.57
2022-08-26T19:49:31.374Z,8.30
2022-08-26T19:51:58.728Z,7.23
2022-08-26T19:57:06.772Z,7.63
2022-08-26T19:59:36.700Z,7.80
2022-08-26T20:02:08.634Z,7.70
2022-08-26T20:04:41.915Z,7.50
2022-08-26T20:07:10.431Z,7.13
2022-08-26T20:09:38.800Z,7.63
2022-08-26T20:12:06.999Z,8.80
2022-08-26T20:14:35.534Z,8.37
2022-08-26T20:17:03.987Z,8.90
2022-08-26T20:19:49.586Z,8.63
2022-08-26T20:22:19.523Z,9.60
2022-08-26T20:24:47.634Z,13.10
2022-08-26T20:27:18.090Z,11.60
2022-08-26T20:29:48.338Z,10.40
2022-08-26T20:32:15.152Z,9.57
2022-08-26T20:34:42.743Z,10.53
2022-08-26T20:37:11.126Z,10.63
2022-08-26T20:39:38.038Z,9.43
2022-08-26T20:42:20.055Z,8.73
2022-08-26T20:44:54.749Z,9.50
2022-08-26T20:47:22.274Z,8.03
2022-08-26T20:49:52.525Z,8.07
2022-08-26T20:52:20.025Z,8.20
2022-08-26T20:54:47.212Z,7.97
2022-08-26T20:57:14.633Z,8.40
2022-08-26T20:59:44.524Z,8.60
2022-08-26T21:02:20.767Z,8.53
2022-08-26T21:04:49.948Z,8.27
2022-08-26T21:07:16.771Z,8.87
2022-08-26T21:09:44.845Z,9.20
2022-08-26T21:12:12.600Z,9.37
2022-08-26T21:14:39.600Z,9.90
2022-08-26T21:17:06.427Z,9.37
2022-08-26T21:19:36.169Z,9.40
2022-08-26T21:22:03.224Z,9.70
2022-08-26T21:24:30.185Z,9.00
2022-08-26T21:26:57.138Z,9.87
2022-08-26T21:29:26.468Z,11.03
2022-08-26T21:31:53.210Z,10.43
2022-08-26T21:34:20.713Z,10.63
2022-08-26T21:36:55.845Z,11.10
2022-08-26T21:39:23.033Z,10.23
2022-08-26T21:41:50.089Z,8.87
2022-08-26T21:44:17.813Z,9.07
2022-08-26T21:46:45.896Z,9.03
2022-08-26T21:49:16.222Z,8.47
2022-08-26T21:51:45.753Z,7.80
2022-08-26T21:54:13.637Z,7.63
2022-08-26T21:56:46.874Z,7.33
2022-08-26T21:59:16.354Z,7.70
2022-08-26T22:01:45.849Z,7.77
2022-08-26T22:04:12.877Z,7.20
2022-08-26T22:06:46.590Z,7.33
2022-08-26T22:09:15.767Z,6.93
2022-08-26T22:11:43.366Z,6.80
2022-08-26T22:14:11.415Z,6.63
2022-08-26T22:16:38.517Z,7.13
2022-08-26T22:19:13.416Z,6.23
2022-08-26T22:21:45.525Z,6.00
2022-08-26T22:24:12.777Z,6.40
2022-08-26T22:26:39.650Z,6.07
2022-08-26T22:29:10.137Z,6.93
2022-08-26T22:31:40.561Z,6.73
2022-08-26T22:34:13.493Z,7.47
2022-08-26T22:36:44.162Z,6.43
2022-08-26T22:39:16.689Z,6.00
2022-08-26T22:41:44.980Z,6.37
2022-08-26T22:44:18.923Z,5.80
2022-08-26T22:46:46.700Z,6.47
2022-08-26T22:49:19.333Z,6.67
2022-08-26T22:51:47.028Z,6.43
2022-08-26T22:54:14.722Z,6.53
2022-08-26T22:56:42.320Z,6.07
2022-08-26T22:59:11.156Z,5.70
2022-08-26T23:01:42.370Z,6.30
2022-08-26T23:04:09.384Z,6.17
2022-08-26T23:06:38.304Z,5.30
2022-08-26T23:09:06.704Z,6.10
2022-08-26T23:11:34.595Z,5.77
2022-08-26T23:14:02.289Z,5.53
2022-08-26T23:16:37.929Z,5.43
2022-08-26T23:19:06.893Z,5.33
2022-08-26T23:21:36.399Z,6.47
2022-08-26T23:24:03.731Z,7.87
2022-08-26T23:26:32.018Z,6.80
2022-08-26T23:28:59.688Z,6.27
2022-08-26T23:31:37.097Z,6.80
2022-08-26T23:34:23.057Z,7.20
2022-08-26T23:36:52.593Z,6.83
2022-08-26T23:39:23.253Z,6.13
2022-08-26T23:41:50.219Z,6.87
2022-08-26T23:44:21.011Z,6.77
2022-08-26T23:46:55.404Z,7.10
2022-08-26T23:49:22.915Z,6.93
2022-08-26T23:52:12.345Z,7.00
2022-08-26T23:54:48.853Z,6.50
2022-08-26T23:57:18.741Z,6.93
2022-08-26T23:59:47.055Z,7.97
